sensor_id;sensor_type;location;lat;lon;timestamp;P1;durP1;ratioP1;P2;durP2;ratioP2
9208;SDS011;4639;48.862;9.188;2022-10-17T00:00:15;5.03;;;3.67;;
9208;SDS011;4639;48.862;9.188;2022-10-17T00:02:40;8.70;;;3.92;;
9208;SDS011;4639;48.862;9.188;2022-10-17T00:05:06;8.75;;;3.85;;
9208;SDS011;4639;48.862;9.188;2022-10-17T00:07:31;6.97;;;3.80;;
9208;SDS011;4639;48.862;9.188;2022-10-17T00:09:57;4.15;;;3.65;;
9208;SDS011;4639;48.862;9.188;2022-10-17T00:12:23;6.68;;;4.80;;
9208;SDS011;4639;48.862;9.188;2022-10-17T00:14:48;10.57;;;4.30;;
9208;SDS011;4639;48.862;9.188;2022-10-17T00:17:14;7.78;;;4.50;;
9208;SDS011;4639;48.862;9.188;2022-10-17T00:19:40;14.10;;;4.50;;
9208;SDS011;4639;48.862;9.188;2022-10-17T00:22:06;8.43;;;4.88;;
9208;SDS011;4639;48.862;9.188;2022-10-17T00:24:31;8.70;;;4.88;;
9208;SDS011;4639;48.862;9.188;2022-10-17T00:26:57;8.55;;;5.18;;
9208;SDS011;4639;48.862;9.188;2022-10-17T00:29:22;11.80;;;5.15;;
9208;SDS011;4639;48.862;9.188;2022-10-17T00:31:48;10.88;;;5.25;;
9208;SDS011;4639;48.862;9.188;2022-10-17T00:34:13;6.40;;;4.45;;
9208;SDS011;4639;48.862;9.188;2022-10-17T00:36:39;9.05;;;4.90;;
9208;SDS011;4639;48.862;9.188;2022-10-17T00:39:05;11.00;;;4.55;;
9208;SDS011;4639;48.862;9.188;2022-10-17T00:41:31;10.40;;;5.32;;
9208;SDS011;4639;48.862;9.188;2022-10-17T00:43:59;11.25;;;5.03;;
9208;SDS011;4639;48.862;9.188;2022-10-17T00:46:30;10.75;;;5.38;;
9208;SDS011;4639;48.862;9.188;2022-10-17T00:48:58;8.48;;;4.80;;
9208;SDS011;4639;48.862;9.188;2022-10-17T00:51:29;10.52;;;4.80;;
9208;SDS011;4639;48.862;9.188;2022-10-17T00:54:01;6.72;;;4.78;;
9208;SDS011;4639;48.862;9.188;2022-10-17T00:56:28;12.55;;;4.93;;
9208;SDS011;4639;48.862;9.188;2022-10-17T00:58:54;10.82;;;4.78;;
9208;SDS011;4639;48.862;9.188;2022-10-17T01:01:20;8.40;;;5.05;;
9208;SDS011;4639;48.862;9.188;2022-10-17T01:03:46;15.90;;;5.15;;
9208;SDS011;4639;48.862;9.188;2022-10-17T01:06:11;13.68;;;4.63;;
9208;SDS011;4639;48.862;9.188;2022-10-17T01:08:37;12.55;;;4.55;;
9208;SDS011;4639;48.862;9.188;2022-10-17T01:11:25;9.07;;;4.60;;
9208;SDS011;4639;48.862;9.188;2022-10-17T01:14:00;14.55;;;4.88;;
9208;SDS011;4639;48.862;9.188;2022-10-17T01:16:44;6.63;;;4.10;;
9208;SDS011;4639;48.862;9.188;2022-10-17T01:21:52;7.20;;;4.32;;
9208;SDS011;4639;48.862;9.188;2022-10-17T01:24:35;9.52;;;4.30;;
9208;SDS011;4639;48.862;9.188;2022-10-17T01:27:35;6.45;;;3.72;;
9208;SDS011;4639;48.862;9.188;2022-10-17T01:33:30;8.10;;;4.70;;
9208;SDS011;4639;48.862;9.188;2022-10-17T01:36:08;8.82;;;4.10;;
9208;SDS011;4639;48.862;9.188;2022-10-17T01:38:42;11.88;;;4.15;;
9208;SDS011;4639;48.862;9.188;2022-10-17T01:43:49;7.65;;;4.10;;
9208;SDS011;4639;48.862;9.188;2022-10-17T01:46:36;6.68;;;4.13;;
9208;SDS011;4639;48.862;9.188;2022-10-17T01:49:04;11.20;;;4.32;;
9208;SDS011;4639;48.862;9.188;2022-10-17T01:51:42;5.70;;;4.00;;
9208;SDS011;4639;48.862;9.188;2022-10-17T01:54:14;9.10;;;3.88;;
9208;SDS011;4639;48.862;9.188;2022-10-17T01:56:46;8.80;;;4.05;;
9208;SDS011;4639;48.862;9.188;2022-10-17T01:59:18;9.43;;;3.20;;
9208;SDS011;4639;48.862;9.188;2022-10-17T02:01:48;8.35;;;3.83;;
9208;SDS011;4639;48.862;9.188;2022-10-17T02:04:16;9.48;;;3.45;;
9208;SDS011;4639;48.862;9.188;2022-10-17T02:06:42;5.50;;;3.75;;
9208;SDS011;4639;48.862;9.188;2022-10-17T02:09:17;9.15;;;4.28;;
9208;SDS011;4639;48.862;9.188;2022-10-17T02:11:49;7.88;;;3.67;;
9208;SDS011;4639;48.862;9.188;2022-10-17T02:19:49;12.18;;;4.22;;
9208;SDS011;4639;48.862;9.188;2022-10-17T02:22:36;10.15;;;3.90;;
9208;SDS011;4639;48.862;9.188;2022-10-17T02:30:41;9.25;;;4.05;;
9208;SDS011;4639;48.862;9.188;2022-10-17T02:33:36;9.60;;;3.63;;
9208;SDS011;4639;48.862;9.188;2022-10-17T02:36:07;12.70;;;3.90;;
9208;SDS011;4639;48.862;9.188;2022-10-17T02:38:37;8.85;;;3.72;;
9208;SDS011;4639;48.862;9.188;2022-10-17T02:41:05;12.98;;;4.10;;
9208;SDS011;4639;48.862;9.188;2022-10-17T02:43:34;4.90;;;3.38;;
9208;SDS011;4639;48.862;9.188;2022-10-17T02:46:01;8.70;;;3.70;;
9208;SDS011;4639;48.862;9.188;2022-10-17T02:48:29;7.35;;;3.33;;
9208;SDS011;4639;48.862;9.188;2022-10-17T02:51:03;6.90;;;3.40;;
9208;SDS011;4639;48.862;9.188;2022-10-17T02:53:44;6.45;;;3.38;;
9208;SDS011;4639;48.862;9.188;2022-10-17T02:56:41;9.55;;;3.60;;
9208;SDS011;4639;48.862;9.188;2022-10-17T02:59:11;8.77;;;3.22;;
9208;SDS011;4639;48.862;9.188;2022-10-17T03:01:39;3.88;;;3.15;;
9208;SDS011;4639;48.862;9.188;2022-10-17T03:04:07;8.25;;;3.33;;
9208;SDS011;4639;48.862;9.188;2022-10-17T03:06:34;14.52;;;4.30;;
9208;SDS011;4639;48.862;9.188;2022-10-17T03:09:00;8.70;;;3.72;;
9208;SDS011;4639;48.862;9.188;2022-10-17T03:11:26;11.95;;;3.42;;
9208;SDS011;4639;48.862;9.188;2022-10-17T03:13:51;11.32;;;3.70;;
9208;SDS011;4639;48.862;9.188;2022-10-17T03:16:17;9.63;;;4.03;;
9208;SDS011;4639;48.862;9.188;2022-10-17T03:18:42;8.43;;;3.75;;
9208;SDS011;4639;48.862;9.188;2022-10-17T03:21:08;7.18;;;3.88;;
9208;SDS011;4639;48.862;9.188;2022-10-17T03:23:33;7.18;;;3.22;;
9208;SDS011;4639;48.862;9.188;2022-10-17T03:26:02;5.22;;;3.80;;
9208;SDS011;4639;48.862;9.188;2022-10-17T03:28:29;5.55;;;3.75;;
9208;SDS011;4639;48.862;9.188;2022-10-17T03:30:54;7.28;;;3.40;;
9208;SDS011;4639;48.862;9.188;2022-10-17T03:33:20;10.82;;;3.95;;
9208;SDS011;4639;48.862;9.188;2022-10-17T03:35:45;8.48;;;4.05;;
9208;SDS011;4639;48.862;9.188;2022-10-17T03:38:11;10.48;;;4.20;;
9208;SDS011;4639;48.862;9.188;2022-10-17T03:40:36;6.47;;;4.22;;
9208;SDS011;4639;48.862;9.188;2022-10-17T03:43:02;15.82;;;4.97;;
9208;SDS011;4639;48.862;9.188;2022-10-17T03:45:27;5.32;;;4.03;;
9208;SDS011;4639;48.862;9.188;2022-10-17T03:47:53;6.20;;;4.05;;
9208;SDS011;4639;48.862;9.188;2022-10-17T03:50:19;7.43;;;4.40;;
9208;SDS011;4639;48.862;9.188;2022-10-17T03:52:47;14.45;;;4.70;;
9208;SDS011;4639;48.862;9.188;2022-10-17T03:55:14;10.00;;;4.32;;
9208;SDS011;4639;48.862;9.188;2022-10-17T03:57:39;7.97;;;4.18;;
9208;SDS011;4639;48.862;9.188;2022-10-17T04:00:05;12.48;;;5.32;;
9208;SDS011;4639;48.862;9.188;2022-10-17T04:02:31;11.18;;;4.85;;
9208;SDS011;4639;48.862;9.188;2022-10-17T04:04:58;7.45;;;4.85;;
9208;SDS011;4639;48.862;9.188;2022-10-17T04:07:24;8.27;;;4.60;;
9208;SDS011;4639;48.862;9.188;2022-10-17T04:09:50;7.45;;;5.15;;
9208;SDS011;4639;48.862;9.188;2022-10-17T04:12:16;7.05;;;4.63;;
9208;SDS011;4639;48.862;9.188;2022-10-17T04:14:41;11.18;;;4.63;;
9208;SDS011;4639;48.862;9.188;2022-10-17T04:17:07;7.25;;;4.78;;
9208;SDS011;4639;48.862;9.188;2022-10-17T04:19:32;12.02;;;4.88;;
9208;SDS011;4639;48.862;9.188;2022-10-17T04:21:58;13.20;;;4.60;;
9208;SDS011;4639;48.862;9.188;2022-10-17T04:24:23;9.40;;;4.20;;
9208;SDS011;4639;48.862;9.188;2022-10-17T04:26:50;7.75;;;4.57;;
9208;SDS011;4639;48.862;9.188;2022-10-17T04:29:16;6.18;;;4.57;;
9208;SDS011;4639;48.862;9.188;2022-10-17T04:31:42;10.50;;;4.20;;
9208;SDS011;4639;48.862;9.188;2022-10-17T04:34:07;5.93;;;4.28;;
9208;SDS011;4639;48.862;9.188;2022-10-17T04:36:33;8.90;;;4.65;;
9208;SDS011;4639;48.862;9.188;2022-10-17T04:38:59;6.65;;;4.63;;
9208;SDS011;4639;48.862;9.188;2022-10-17T04:41:27;6.63;;;4.53;;
9208;SDS011;4639;48.862;9.188;2022-10-17T04:43:53;8.65;;;4.70;;
9208;SDS011;4639;48.862;9.188;2022-10-17T04:46:18;14.00;;;4.65;;
9208;SDS011;4639;48.862;9.188;2022-10-17T04:48:44;8.40;;;4.07;;
9208;SDS011;4639;48.862;9.188;2022-10-17T04:51:11;12.05;;;4.53;;
9208;SDS011;4639;48.862;9.188;2022-10-17T04:53:38;7.82;;;4.63;;
9208;SDS011;4639;48.862;9.188;2022-10-17T04:56:13;7.65;;;4.72;;
9208;SDS011;4639;48.862;9.188;2022-10-17T04:58:41;7.18;;;4.60;;
9208;SDS011;4639;48.862;9.188;2022-10-17T05:01:08;7.88;;;5.15;;
9208;SDS011;4639;48.862;9.188;2022-10-17T05:03:35;8.70;;;4.55;;
9208;SDS011;4639;48.862;9.188;2022-10-17T05:06:02;13.48;;;4.75;;
9208;SDS011;4639;48.862;9.188;2022-10-17T05:08:36;9.20;;;4.47;;
9208;SDS011;4639;48.862;9.188;2022-10-17T05:11:02;8.48;;;4.75;;
9208;SDS011;4639;48.862;9.188;2022-10-17T05:13:27;8.93;;;4.93;;
9208;SDS011;4639;48.862;9.188;2022-10-17T05:15:56;8.95;;;4.78;;
9208;SDS011;4639;48.862;9.188;2022-10-17T05:18:25;11.00;;;4.90;;
9208;SDS011;4639;48.862;9.188;2022-10-17T05:20:51;11.07;;;4.43;;
9208;SDS011;4639;48.862;9.188;2022-10-17T05:23:17;8.07;;;4.82;;
9208;SDS011;4639;48.862;9.188;2022-10-17T05:25:42;12.85;;;5.10;;
9208;SDS011;4639;48.862;9.188;2022-10-17T05:28:17;9.00;;;4.90;;
9208;SDS011;4639;48.862;9.188;2022-10-17T05:30:42;7.53;;;4.80;;
9208;SDS011;4639;48.862;9.188;2022-10-17T05:33:08;9.15;;;5.03;;
9208;SDS011;4639;48.862;9.188;2022-10-17T05:35:34;7.00;;;4.72;;
9208;SDS011;4639;48.862;9.188;2022-10-17T05:38:00;15.88;;;5.13;;
9208;SDS011;4639;48.862;9.188;2022-10-17T05:40:25;12.90;;;4.82;;
9208;SDS011;4639;48.862;9.188;2022-10-17T05:42:51;10.30;;;4.88;;
9208;SDS011;4639;48.862;9.188;2022-10-17T05:45:17;8.68;;;4.25;;
9208;SDS011;4639;48.862;9.188;2022-10-17T05:47:42;13.35;;;5.07;;
9208;SDS011;4639;48.862;9.188;2022-10-17T05:50:08;8.25;;;4.82;;
9208;SDS011;4639;48.862;9.188;2022-10-17T05:52:34;7.15;;;5.05;;
9208;SDS011;4639;48.862;9.188;2022-10-17T05:55:00;9.38;;;4.80;;
9208;SDS011;4639;48.862;9.188;2022-10-17T05:57:26;7.35;;;4.88;;
9208;SDS011;4639;48.862;9.188;2022-10-17T05:59:52;11.50;;;4.50;;
9208;SDS011;4639;48.862;9.188;2022-10-17T06:02:17;9.35;;;4.80;;
9208;SDS011;4639;48.862;9.188;2022-10-17T06:04:43;12.18;;;4.70;;
9208;SDS011;4639;48.862;9.188;2022-10-17T06:07:10;8.55;;;4.80;;
9208;SDS011;4639;48.862;9.188;2022-10-17T06:09:37;7.85;;;4.90;;
9208;SDS011;4639;48.862;9.188;2022-10-17T06:12:02;11.57;;;5.03;;
9208;SDS011;4639;48.862;9.188;2022-10-17T06:14:28;8.93;;;4.90;;
9208;SDS011;4639;48.862;9.188;2022-10-17T06:16:54;6.82;;;4.93;;
9208;SDS011;4639;48.862;9.188;2022-10-17T06:19:19;12.30;;;5.20;;
9208;SDS011;4639;48.862;9.188;2022-10-17T06:21:45;11.18;;;5.00;;
9208;SDS011;4639;48.862;9.188;2022-10-17T06:24:10;10.55;;;4.78;;
9208;SDS011;4639;48.862;9.188;2022-10-17T06:26:36;10.95;;;4.65;;
9208;SDS011;4639;48.862;9.188;2022-10-17T06:29:01;10.35;;;5.30;;
9208;SDS011;4639;48.862;9.188;2022-10-17T06:31:27;11.50;;;5.60;;
9208;SDS011;4639;48.862;9.188;2022-10-17T06:33:53;6.32;;;4.85;;
9208;SDS011;4639;48.862;9.188;2022-10-17T06:36:18;11.60;;;5.00;;
9208;SDS011;4639;48.862;9.188;2022-10-17T06:38:44;16.85;;;5.95;;
9208;SDS011;4639;48.862;9.188;2022-10-17T06:41:11;17.42;;;5.80;;
9208;SDS011;4639;48.862;9.188;2022-10-17T06:43:39;10.30;;;5.40;;
9208;SDS011;4639;48.862;9.188;2022-10-17T06:46:07;15.02;;;5.43;;
9208;SDS011;4639;48.862;9.188;2022-10-17T06:48:33;9.88;;;5.47;;
9208;SDS011;4639;48.862;9.188;2022-10-17T06:50:59;13.38;;;5.70;;
9208;SDS011;4639;48.862;9.188;2022-10-17T06:53:29;19.60;;;6.28;;
9208;SDS011;4639;48.862;9.188;2022-10-17T06:55:56;15.75;;;5.60;;
9208;SDS011;4639;48.862;9.188;2022-10-17T06:58:27;8.93;;;5.25;;
9208;SDS011;4639;48.862;9.188;2022-10-17T07:01:09;14.65;;;4.80;;
9208;SDS011;4639;48.862;9.188;2022-10-17T07:03:36;21.10;;;5.75;;
9208;SDS011;4639;48.862;9.188;2022-10-17T07:06:03;20.63;;;5.57;;
9208;SDS011;4639;48.862;9.188;2022-10-17T07:08:29;14.23;;;5.70;;
9208;SDS011;4639;48.862;9.188;2022-10-17T07:10:55;16.50;;;6.47;;
9208;SDS011;4639;48.862;9.188;2022-10-17T07:13:21;14.20;;;5.97;;
9208;SDS011;4639;48.862;9.188;2022-10-17T07:15:47;10.18;;;4.90;;
9208;SDS011;4639;48.862;9.188;2022-10-17T07:18:13;9.35;;;4.88;;
9208;SDS011;4639;48.862;9.188;2022-10-17T07:20:38;15.25;;;5.10;;
9208;SDS011;4639;48.862;9.188;2022-10-17T07:23:04;12.65;;;4.72;;
9208;SDS011;4639;48.862;9.188;2022-10-17T07:25:30;13.07;;;4.75;;
9208;SDS011;4639;48.862;9.188;2022-10-17T07:27:55;7.78;;;4.10;;
9208;SDS011;4639;48.862;9.188;2022-10-17T07:30:21;11.20;;;4.60;;
9208;SDS011;4639;48.862;9.188;2022-10-17T07:32:47;13.68;;;4.97;;
9208;SDS011;4639;48.862;9.188;2022-10-17T07:35:13;10.15;;;4.38;;
9208;SDS011;4639;48.862;9.188;2022-10-17T07:37:39;13.05;;;5.13;;
9208;SDS011;4639;48.862;9.188;2022-10-17T07:40:05;8.73;;;4.53;;
9208;SDS011;4639;48.862;9.188;2022-10-17T07:42:36;8.05;;;3.72;;
9208;SDS011;4639;48.862;9.188;2022-10-17T07:45:02;9.50;;;4.07;;
9208;SDS011;4639;48.862;9.188;2022-10-17T07:47:28;11.77;;;4.00;;
9208;SDS011;4639;48.862;9.188;2022-10-17T07:49:55;5.75;;;3.65;;
9208;SDS011;4639;48.862;9.188;2022-10-17T07:52:21;8.35;;;4.20;;
9208;SDS011;4639;48.862;9.188;2022-10-17T07:54:47;15.07;;;4.20;;
9208;SDS011;4639;48.862;9.188;2022-10-17T07:57:12;10.80;;;4.15;;
9208;SDS011;4639;48.862;9.188;2022-10-17T07:59:38;8.95;;;3.60;;
9208;SDS011;4639;48.862;9.188;2022-10-17T08:02:04;11.68;;;4.20;;
9208;SDS011;4639;48.862;9.188;2022-10-17T08:04:32;11.23;;;4.22;;
9208;SDS011;4639;48.862;9.188;2022-10-17T08:06:58;9.82;;;3.83;;
9208;SDS011;4639;48.862;9.188;2022-10-17T08:09:24;10.75;;;4.38;;
9208;SDS011;4639;48.862;9.188;2022-10-17T08:11:49;9.57;;;4.03;;
9208;SDS011;4639;48.862;9.188;2022-10-17T08:14:15;11.25;;;4.28;;
9208;SDS011;4639;48.862;9.188;2022-10-17T08:16:41;8.38;;;4.40;;
9208;SDS011;4639;48.862;9.188;2022-10-17T08:19:07;10.63;;;3.95;;
9208;SDS011;4639;48.862;9.188;2022-10-17T08:21:33;11.48;;;4.38;;
9208;SDS011;4639;48.862;9.188;2022-10-17T08:23:59;10.13;;;3.70;;
9208;SDS011;4639;48.862;9.188;2022-10-17T08:26:26;9.95;;;3.92;;
9208;SDS011;4639;48.862;9.188;2022-10-17T08:28:52;6.95;;;3.67;;
9208;SDS011;4639;48.862;9.188;2022-10-17T08:31:18;5.10;;;3.28;;
9208;SDS011;4639;48.862;9.188;2022-10-17T08:33:45;10.25;;;3.88;;
9208;SDS011;4639;48.862;9.188;2022-10-17T08:36:13;7.05;;;3.10;;
9208;SDS011;4639;48.862;9.188;2022-10-17T08:38:39;8.90;;;3.60;;
9208;SDS011;4639;48.862;9.188;2022-10-17T08:41:14;9.80;;;3.42;;
9208;SDS011;4639;48.862;9.188;2022-10-17T08:44:07;9.95;;;3.65;;
9208;SDS011;4639;48.862;9.188;2022-10-17T08:46:40;7.65;;;3.10;;
9208;SDS011;4639;48.862;9.188;2022-10-17T08:52:15;6.22;;;2.85;;
9208;SDS011;4639;48.862;9.188;2022-10-17T08:54:51;9.18;;;2.95;;
9208;SDS011;4639;48.862;9.188;2022-10-17T08:57:17;9.80;;;2.90;;
9208;SDS011;4639;48.862;9.188;2022-10-17T08:59:43;6.30;;;2.72;;
9208;SDS011;4639;48.862;9.188;2022-10-17T09:02:19;7.20;;;2.72;;
9208;SDS011;4639;48.862;9.188;2022-10-17T09:07:26;11.15;;;2.67;;
9208;SDS011;4639;48.862;9.188;2022-10-17T09:10:29;4.50;;;2.50;;
9208;SDS011;4639;48.862;9.188;2022-10-17T09:15:56;5.32;;;2.50;;
9208;SDS011;4639;48.862;9.188;2022-10-17T09:18:46;6.88;;;2.65;;
9208;SDS011;4639;48.862;9.188;2022-10-17T09:21:38;9.40;;;2.38;;
9208;SDS011;4639;48.862;9.188;2022-10-17T09:24:14;8.65;;;2.90;;
9208;SDS011;4639;48.862;9.188;2022-10-17T09:26:51;4.68;;;2.65;;
9208;SDS011;4639;48.862;9.188;2022-10-17T09:29:22;5.25;;;2.53;;
9208;SDS011;4639;48.862;9.188;2022-10-17T09:34:30;11.55;;;2.88;;
9208;SDS011;4639;48.862;9.188;2022-10-17T09:36:57;8.45;;;2.50;;
9208;SDS011;4639;48.862;9.188;2022-10-17T09:39:24;5.90;;;2.60;;
9208;SDS011;4639;48.862;9.188;2022-10-17T09:41:56;6.78;;;2.50;;
9208;SDS011;4639;48.862;9.188;2022-10-17T09:44:27;8.75;;;2.30;;
9208;SDS011;4639;48.862;9.188;2022-10-17T09:49:41;8.35;;;2.67;;
9208;SDS011;4639;48.862;9.188;2022-10-17T09:52:24;6.85;;;2.25;;
9208;SDS011;4639;48.862;9.188;2022-10-17T09:55:03;10.13;;;2.47;;
9208;SDS011;4639;48.862;9.188;2022-10-17T09:57:57;7.55;;;2.30;;
9208;SDS011;4639;48.862;9.188;2022-10-17T10:00:25;7.65;;;2.55;;
9208;SDS011;4639;48.862;9.188;2022-10-17T10:05:57;6.95;;;2.10;;
9208;SDS011;4639;48.862;9.188;2022-10-17T10:08:29;5.15;;;2.60;;
9208;SDS011;4639;48.862;9.188;2022-10-17T10:11:00;9.73;;;2.55;;
9208;SDS011;4639;48.862;9.188;2022-10-17T10:13:31;8.75;;;2.50;;
9208;SDS011;4639;48.862;9.188;2022-10-17T10:16:40;13.93;;;3.47;;
9208;SDS011;4639;48.862;9.188;2022-10-17T10:18:53;7.43;;;2.28;;
9208;SDS011;4639;48.862;9.188;2022-10-17T10:21:20;4.78;;;2.00;;
9208;SDS011;4639;48.862;9.188;2022-10-17T10:24:30;5.78;;;2.40;;
9208;SDS011;4639;48.862;9.188;2022-10-17T10:26:47;6.90;;;2.60;;
9208;SDS011;4639;48.862;9.188;2022-10-17T10:32:08;3.65;;;2.45;;
9208;SDS011;4639;48.862;9.188;2022-10-17T10:34:36;6.18;;;2.50;;
9208;SDS011;4639;48.862;9.188;2022-10-17T10:37:17;7.10;;;2.28;;
9208;SDS011;4639;48.862;9.188;2022-10-17T10:39:52;7.97;;;2.72;;
9208;SDS011;4639;48.862;9.188;2022-10-17T10:42:24;7.13;;;2.35;;
9208;SDS011;4639;48.862;9.188;2022-10-17T10:44:57;6.05;;;2.75;;
9208;SDS011;4639;48.862;9.188;2022-10-17T10:47:27;10.77;;;3.53;;
9208;SDS011;4639;48.862;9.188;2022-10-17T10:52:46;7.10;;;2.78;;
9208;SDS011;4639;48.862;9.188;2022-10-17T10:57:54;10.15;;;2.97;;
9208;SDS011;4639;48.862;9.188;2022-10-17T11:00:25;9.13;;;3.05;;
9208;SDS011;4639;48.862;9.188;2022-10-17T11:02:58;7.88;;;2.70;;
9208;SDS011;4639;48.862;9.188;2022-10-17T11:05:35;11.52;;;3.08;;
9208;SDS011;4639;48.862;9.188;2022-10-17T11:13:35;7.95;;;3.22;;
9208;SDS011;4639;48.862;9.188;2022-10-17T11:18:49;11.77;;;2.88;;
9208;SDS011;4639;48.862;9.188;2022-10-17T11:24:29;6.95;;;2.80;;
9208;SDS011;4639;48.862;9.188;2022-10-17T11:27:03;5.85;;;2.85;;
9208;SDS011;4639;48.862;9.188;2022-10-17T11:29:30;6.70;;;2.50;;
9208;SDS011;4639;48.862;9.188;2022-10-17T11:32:02;4.70;;;2.53;;
9208;SDS011;4639;48.862;9.188;2022-10-17T11:34:51;7.80;;;2.47;;
9208;SDS011;4639;48.862;9.188;2022-10-17T11:37:24;9.50;;;2.95;;
9208;SDS011;4639;48.862;9.188;2022-10-17T11:39:55;5.65;;;2.80;;
9208;SDS011;4639;48.862;9.188;2022-10-17T11:42:34;5.25;;;2.58;;
9208;SDS011;4639;48.862;9.188;2022-10-17T11:45:16;4.38;;;2.28;;
9208;SDS011;4639;48.862;9.188;2022-10-17T11:47:45;7.32;;;2.33;;
9208;SDS011;4639;48.862;9.188;2022-10-17T11:55:45;8.00;;;2.10;;
9208;SDS011;4639;48.862;9.188;2022-10-17T11:58:17;3.35;;;2.00;;
9208;SDS011;4639;48.862;9.188;2022-10-17T12:01:06;4.80;;;2.00;;
9208;SDS011;4639;48.862;9.188;2022-10-17T12:12:24;5.38;;;1.95;;
9208;SDS011;4639;48.862;9.188;2022-10-17T12:14:52;2.40;;;1.58;;
9208;SDS011;4639;48.862;9.188;2022-10-17T12:17:22;3.80;;;2.22;;
9208;SDS011;4639;48.862;9.188;2022-10-17T12:22:57;6.07;;;1.98;;
9208;SDS011;4639;48.862;9.188;2022-10-17T12:25:27;4.72;;;1.80;;
9208;SDS011;4639;48.862;9.188;2022-10-17T12:30:31;3.88;;;1.80;;
9208;SDS011;4639;48.862;9.188;2022-10-17T12:33:02;6.78;;;2.15;;
9208;SDS011;4639;48.862;9.188;2022-10-17T12:35:46;7.45;;;1.90;;
9208;SDS011;4639;48.862;9.188;2022-10-17T12:45:54;7.68;;;2.05;;
9208;SDS011;4639;48.862;9.188;2022-10-17T12:54:18;10.82;;;2.13;;
9208;SDS011;4639;48.862;9.188;2022-10-17T12:56:37;4.15;;;1.88;;
9208;SDS011;4639;48.862;9.188;2022-10-17T12:59:23;8.95;;;2.03;;
9208;SDS011;4639;48.862;9.188;2022-10-17T13:01:51;6.45;;;1.83;;
9208;SDS011;4639;48.862;9.188;2022-10-17T13:04:20;7.13;;;2.33;;
9208;SDS011;4639;48.862;9.188;2022-10-17T13:06:47;5.10;;;2.28;;
9208;SDS011;4639;48.862;9.188;2022-10-17T13:09:23;5.53;;;2.03;;
9208;SDS011;4639;48.862;9.188;2022-10-17T13:11:52;5.25;;;2.03;;
9208;SDS011;4639;48.862;9.188;2022-10-17T13:14:21;2.30;;;1.52;;
9208;SDS011;4639;48.862;9.188;2022-10-17T13:16:56;6.80;;;2.13;;
9208;SDS011;4639;48.862;9.188;2022-10-17T13:19:43;7.03;;;2.15;;
9208;SDS011;4639;48.862;9.188;2022-10-17T13:22:15;2.17;;;1.55;;
9208;SDS011;4639;48.862;9.188;2022-10-17T13:24:43;6.68;;;2.00;;
9208;SDS011;4639;48.862;9.188;2022-10-17T13:27:22;5.32;;;2.10;;
9208;SDS011;4639;48.862;9.188;2022-10-17T13:29:56;4.75;;;1.73;;
9208;SDS011;4639;48.862;9.188;2022-10-17T13:32:24;8.10;;;1.77;;
9208;SDS011;4639;48.862;9.188;2022-10-17T13:35:07;3.38;;;1.70;;
9208;SDS011;4639;48.862;9.188;2022-10-17T13:37:35;8.40;;;2.45;;
9208;SDS011;4639;48.862;9.188;2022-10-17T13:40:03;5.20;;;1.75;;
9208;SDS011;4639;48.862;9.188;2022-10-17T13:42:29;5.28;;;2.05;;
9208;SDS011;4639;48.862;9.188;2022-10-17T13:45:02;4.97;;;1.88;;
9208;SDS011;4639;48.862;9.188;2022-10-17T13:47:28;7.03;;;1.98;;
9208;SDS011;4639;48.862;9.188;2022-10-17T13:49:58;10.55;;;2.05;;
9208;SDS011;4639;48.862;9.188;2022-10-17T13:52:24;8.20;;;2.22;;
9208;SDS011;4639;48.862;9.188;2022-10-17T13:54:52;3.92;;;1.70;;
9208;SDS011;4639;48.862;9.188;2022-10-17T13:57:20;5.68;;;1.75;;
9208;SDS011;4639;48.862;9.188;2022-10-17T14:00:25;2.97;;;1.67;;
9208;SDS011;4639;48.862;9.188;2022-10-17T14:02:45;6.40;;;2.20;;
9208;SDS011;4639;48.862;9.188;2022-10-17T14:05:19;7.05;;;1.88;;
9208;SDS011;4639;48.862;9.188;2022-10-17T14:10:20;4.43;;;1.83;;
9208;SDS011;4639;48.862;9.188;2022-10-17T14:12:48;5.03;;;1.75;;
9208;SDS011;4639;48.862;9.188;2022-10-17T14:15:16;3.20;;;1.92;;
9208;SDS011;4639;48.862;9.188;2022-10-17T14:17:42;12.60;;;2.35;;
9208;SDS011;4639;48.862;9.188;2022-10-17T14:20:19;10.52;;;1.95;;
9208;SDS011;4639;48.862;9.188;2022-10-17T14:22:46;8.88;;;1.80;;
9208;SDS011;4639;48.862;9.188;2022-10-17T14:30:43;7.88;;;2.25;;
9208;SDS011;4639;48.862;9.188;2022-10-17T14:33:14;7.55;;;2.20;;
9208;SDS011;4639;48.862;9.188;2022-10-17T14:35:50;6.90;;;2.22;;
9208;SDS011;4639;48.862;9.188;2022-10-17T14:38:20;7.80;;;2.35;;
9208;SDS011;4639;48.862;9.188;2022-10-17T14:40:50;9.45;;;3.47;;
9208;SDS011;4639;48.862;9.188;2022-10-17T14:43:19;9.00;;;2.20;;
9208;SDS011;4639;48.862;9.188;2022-10-17T14:45:50;6.05;;;2.28;;
9208;SDS011;4639;48.862;9.188;2022-10-17T14:48:16;4.97;;;2.15;;
9208;SDS011;4639;48.862;9.188;2022-10-17T14:53:31;7.20;;;2.70;;
9208;SDS011;4639;48.862;9.188;2022-10-17T14:55:58;6.43;;;2.67;;
9208;SDS011;4639;48.862;9.188;2022-10-17T14:58:28;7.57;;;2.22;;
9208;SDS011;4639;48.862;9.188;2022-10-17T15:01:13;9.27;;;2.08;;
9208;SDS011;4639;48.862;9.188;2022-10-17T15:03:39;6.50;;;2.28;;
9208;SDS011;4639;48.862;9.188;2022-10-17T15:06:17;7.75;;;2.10;;
9208;SDS011;4639;48.862;9.188;2022-10-17T15:08:45;4.38;;;1.60;;
9208;SDS011;4639;48.862;9.188;2022-10-17T15:11:10;5.85;;;1.98;;
9208;SDS011;4639;48.862;9.188;2022-10-17T15:13:36;9.13;;;2.40;;
9208;SDS011;4639;48.862;9.188;2022-10-17T15:16:05;3.63;;;2.08;;
9208;SDS011;4639;48.862;9.188;2022-10-17T15:18:39;5.65;;;1.77;;
9208;SDS011;4639;48.862;9.188;2022-10-17T15:21:10;4.75;;;2.05;;
9208;SDS011;4639;48.862;9.188;2022-10-17T15:23:36;2.72;;;1.63;;
9208;SDS011;4639;48.862;9.188;2022-10-17T15:26:02;4.72;;;2.20;;
9208;SDS011;4639;48.862;9.188;2022-10-17T15:28:29;6.93;;;2.05;;
9208;SDS011;4639;48.862;9.188;2022-10-17T15:30:55;5.63;;;2.10;;
9208;SDS011;4639;48.862;9.188;2022-10-17T15:33:20;6.50;;;2.40;;
9208;SDS011;4639;48.862;9.188;2022-10-17T15:35:46;2.65;;;2.00;;
9208;SDS011;4639;48.862;9.188;2022-10-17T15:38:12;4.38;;;2.30;;
9208;SDS011;4639;48.862;9.188;2022-10-17T15:40:42;2.80;;;2.13;;
9208;SDS011;4639;48.862;9.188;2022-10-17T15:43:08;4.13;;;1.92;;
9208;SDS011;4639;48.862;9.188;2022-10-17T15:45:33;5.90;;;2.03;;
9208;SDS011;4639;48.862;9.188;2022-10-17T15:48:01;5.07;;;2.20;;
9208;SDS011;4639;48.862;9.188;2022-10-17T15:50:31;10.52;;;2.17;;
9208;SDS011;4639;48.862;9.188;2022-10-17T15:52:57;5.70;;;2.25;;
9208;SDS011;4639;48.862;9.188;2022-10-17T15:55:23;9.80;;;2.40;;
9208;SDS011;4639;48.862;9.188;2022-10-17T15:57:49;6.90;;;2.25;;
9208;SDS011;4639;48.862;9.188;2022-10-17T16:00:17;7.70;;;2.38;;
9208;SDS011;4639;48.862;9.188;2022-10-17T16:02:44;7.80;;;2.60;;
9208;SDS011;4639;48.862;9.188;2022-10-17T16:05:14;4.53;;;2.38;;
9208;SDS011;4639;48.862;9.188;2022-10-17T16:07:50;4.35;;;2.30;;
9208;SDS011;4639;48.862;9.188;2022-10-17T16:10:16;6.47;;;2.35;;
9208;SDS011;4639;48.862;9.188;2022-10-17T16:12:42;6.13;;;2.08;;
9208;SDS011;4639;48.862;9.188;2022-10-17T16:15:15;3.35;;;2.03;;
9208;SDS011;4639;48.862;9.188;2022-10-17T16:17:49;3.55;;;2.03;;
9208;SDS011;4639;48.862;9.188;2022-10-17T16:20:16;5.57;;;2.25;;
9208;SDS011;4639;48.862;9.188;2022-10-17T16:22:42;4.40;;;2.13;;
9208;SDS011;4639;48.862;9.188;2022-10-17T16:25:22;4.30;;;2.42;;
9208;SDS011;4639;48.862;9.188;2022-10-17T16:27:50;6.82;;;2.60;;
9208;SDS011;4639;48.862;9.188;2022-10-17T16:30:18;8.52;;;2.85;;
9208;SDS011;4639;48.862;9.188;2022-10-17T16:32:44;6.97;;;3.30;;
9208;SDS011;4639;48.862;9.188;2022-10-17T16:35:10;4.55;;;3.03;;
9208;SDS011;4639;48.862;9.188;2022-10-17T16:37:41;5.85;;;3.63;;
9208;SDS011;4639;48.862;9.188;2022-10-17T16:40:07;6.90;;;3.58;;
9208;SDS011;4639;48.862;9.188;2022-10-17T16:42:33;12.52;;;3.53;;
9208;SDS011;4639;48.862;9.188;2022-10-17T16:44:59;11.02;;;4.35;;
9208;SDS011;4639;48.862;9.188;2022-10-17T16:47:24;10.73;;;4.50;;
9208;SDS011;4639;48.862;9.188;2022-10-17T16:49:50;6.03;;;3.58;;
9208;SDS011;4639;48.862;9.188;2022-10-17T16:52:15;8.35;;;3.97;;
9208;SDS011;4639;48.862;9.188;2022-10-17T16:54:41;7.75;;;4.53;;
9208;SDS011;4639;48.862;9.188;2022-10-17T16:57:06;8.27;;;4.28;;
9208;SDS011;4639;48.862;9.188;2022-10-17T16:59:32;11.32;;;4.97;;
9208;SDS011;4639;48.862;9.188;2022-10-17T17:01:57;9.48;;;4.53;;
9208;SDS011;4639;48.862;9.188;2022-10-17T17:04:23;10.18;;;6.20;;
9208;SDS011;4639;48.862;9.188;2022-10-17T17:06:49;11.48;;;5.25;;